Time;durP1;ratioP1;P1;durP2;ratioP2;P2;SDS_P1;SDS_P2;PMS_P1;PMS_P2;Temp;Humidity;BMP_temperature;BMP_pressure;BME280_temperature;BME280_humidity;BME280_pressure;Samples;Min_cycle;Max_cycle;Signal;HPM_P1;HPM_P2
2022/10/07 00:01:27;;;;;;;1.25;1.25;;;;;;;6.47;70.44;94468.41;5089637;28;20113;-34
2022/10/07 00:03:53;;;;;;;0.30;0.30;;;;;;;6.45;70.34;94492.09;5090536;28;20028;-35
2022/10/07 00:06:21;;;;;;;0.30;0.30;;;;;;;6.33;71.02;94493.31;5090580;28;20031;-35
2022/10/07 00:08:49;;;;;;;0.65;0.65;;;;;;;6.29;71.00;94492.81;5081069;28;20035;-35
2022/10/07 00:11:23;;;;;;;0.57;0.57;;;;;;;6.28;71.60;94496.81;5090027;28;20024;-35
2022/10/07 00:13:51;;;;;;;1.48;0.95;;;;;;;6.27;71.07;94495.28;5091105;28;20030;-35
2022/10/07 00:16:23;;;;;;;0.47;0.47;;;;;;;6.01;71.66;94498.22;5091170;28;20024;-35
2022/10/07 00:18:49;;;;;;;0.80;0.80;;;;;;;6.16;71.22;94490.53;5090399;28;20032;-35
2022/10/07 00:21:16;;;;;;;0.40;0.40;;;;;;;6.19;71.19;94497.78;5091032;28;20030;-35
2022/10/07 00:23:43;;;;;;;0.45;0.45;;;;;;;6.25;71.59;94489.56;5091211;28;20107;-35
2022/10/07 00:26:12;;;;;;;0.80;0.60;;;;;;;5.85;71.97;94498.91;5090744;28;20027;-35
2022/10/07 00:28:37;;;;;;;0.88;0.82;;;;;;;5.95;71.70;94484.50;5097656;28;20031;-35
2022/10/07 00:31:09;;;;;;;0.20;0.20;;;;;;;5.92;71.97;94490.22;5097465;28;20114;-35
2022/10/07 00:33:36;;;;;;;0.45;0.45;;;;;;;5.98;72.02;94480.75;5111187;28;20023;-35
2022/10/07 00:36:22;;;;;;;0.98;0.98;;;;;;;5.93;72.61;94486.97;5111447;28;20035;-35
2022/10/07 00:38:52;;;;;;;0.30;0.30;;;;;;;5.94;72.75;94474.78;5111004;28;20118;-35
2022/10/07 00:41:20;;;;;;;0.22;0.22;;;;;;;6.01;72.66;94488.00;5110776;28;20030;-35
2022/10/07 00:43:47;;;;;;;2.35;1.38;;;;;;;5.92;71.87;94474.53;5111261;28;20127;-34
2022/10/07 00:46:20;;;;;;;0.95;0.95;;;;;;;5.77;72.13;94473.19;5111175;28;20516;-34
2022/10/07 00:48:46;;;;;;;0.57;0.57;;;;;;;5.89;71.65;94480.25;5093138;28;20032;-35
2022/10/07 00:51:15;;;;;;;1.17;1.17;;;;;;;5.93;71.45;94476.00;5110875;28;20028;-35
2022/10/07 00:53:41;;;;;;;;;;;;;;;6.03;71.45;94479.28;5094098;28;20027;-35
2022/10/07 00:56:06;;;;;;;0.75;0.75;;;;;;;5.76;72.38;94477.91;5092965;28;20394;-35
2022/10/07 00:58:34;;;;;;;0.82;0.82;;;;;;;5.81;72.19;94471.72;5093030;28;20106;-35
2022/10/07 01:01:00;;;;;;;0.70;0.70;;;;;;;5.79;71.71;94468.72;5092596;28;20496;-35
2022/10/07 01:03:25;;;;;;;1.02;1.02;;;;;;;5.78;72.21;94467.19;5110700;28;20028;-35
2022/10/07 01:05:51;;;;;;;1.00;1.00;;;;;;;5.59;72.61;94468.88;5110702;28;20061;-35
2022/10/07 01:08:17;;;;;;;0.57;0.57;;;;;;;5.64;71.94;94470.16;5104674;28;20055;-35
2022/10/07 01:11:14;;;;;;;0.63;0.63;;;;;;;5.76;71.17;94463.47;5072667;28;20109;-35
2022/10/07 01:13:50;;;;;;;2.05;1.25;;;;;;;5.67;71.85;94463.69;5055663;28;20036;-35
2022/10/07 01:16:28;;;;;;;0.68;0.68;;;;;;;5.74;72.30;94468.72;5090579;28;20032;-35
2022/10/07 01:19:08;;;;;;;0.70;0.70;;;;;;;5.69;71.67;94472.16;5090265;28;20020;-35
2022/10/07 01:21:57;;;;;;;0.50;0.50;;;;;;;5.70;71.85;94468.16;5072455;28;20028;-35
2022/10/07 01:24:38;;;;;;;0.30;0.30;;;;;;;5.63;72.19;94476.88;5090288;28;20518;-35
2022/10/07 01:27:13;;;;;;;0.22;0.22;;;;;;;5.76;71.75;94477.91;5071827;28;20028;-35
2022/10/07 01:29:54;;;;;;;0.50;0.50;;;;;;;5.59;72.03;94477.09;5087533;28;20039;-35
2022/10/07 01:32:51;;;;;;;0.40;0.40;;;;;;;5.52;71.85;94474.09;5080509;28;20024;-35
2022/10/07 01:35:20;;;;;;;0.30;0.30;;;;;;;5.50;71.59;94471.81;5072601;28;20020;-35
2022/10/07 01:37:48;;;;;;;0.20;0.20;;;;;;;5.61;71.37;94471.16;5072381;28;20440;-35
2022/10/07 01:40:18;;;;;;;0.73;0.73;;;;;;;5.46;71.70;94468.56;5072426;28;20036;-35
2022/10/07 01:42:45;;;;;;;0.20;0.20;;;;;;;5.37;71.69;94444.16;5072341;28;20507;-35
2022/10/07 01:45:13;;;;;;;0.20;0.20;;;;;;;5.51;71.53;94456.13;5089992;28;20081;-35
2022/10/07 01:47:38;;;;;;;0.20;0.20;;;;;;;5.36;72.42;94465.31;5071892;28;20499;-35
2022/10/07 01:50:14;;;;;;;0.30;0.30;;;;;;;5.36;72.19;94467.28;5090030;28;20035;-35
2022/10/07 01:53:01;;;;;;;0.68;0.68;;;;;;;5.17;73.17;94460.72;5090178;28;20032;-35
2022/10/07 01:55:32;;;;;;;0.25;0.25;;;;;;;5.13;73.81;94460.19;5093775;28;20028;-35
2022/10/07 01:58:00;;;;;;;1.42;1.35;;;;;;;5.31;73.71;94457.03;5093691;28;20065;-35
2022/10/07 02:00:26;;;;;;;0.55;0.55;;;;;;;5.44;72.82;94440.16;5093681;28;20551;-35
2022/10/07 02:02:58;;;;;;;0.32;0.32;;;;;;;5.33;72.96;94454.56;5093892;28;20107;-35
2022/10/07 02:05:46;;;;;;;0.70;0.70;;;;;;;5.24;73.75;94447.31;5075678;28;20031;-35
2022/10/07 02:08:31;;;;;;;0.30;0.30;;;;;;;5.34;74.34;94443.13;5093372;28;20052;-35
2022/10/07 02:11:11;;;;;;;1.00;0.85;;;;;;;5.33;74.63;94430.66;5093488;28;20032;-35
2022/10/07 02:14:00;;;;;;;0.30;0.30;;;;;;;5.22;75.77;94449.78;5075340;28;20503;-35
2022/10/07 02:16:47;;;;;;;0.63;0.63;;;;;;;5.15;75.00;94444.78;5075599;28;20384;-35
2022/10/07 02:19:33;;;;;;;0.50;0.50;;;;;;;5.17;74.56;94445.03;5075383;28;20035;-35
2022/10/07 02:22:01;;;;;;;0.40;0.40;;;;;;;5.18;75.06;94440.28;5093194;28;20082;-34
2022/10/07 02:24:29;;;;;;;0.60;0.60;;;;;;;4.98;74.42;94440.44;5075467;28;20024;-35
2022/10/07 02:26:57;;;;;;;1.13;1.13;;;;;;;4.96;74.50;94446.38;5093016;28;20024;-34
2022/10/07 02:29:24;;;;;;;1.40;1.38;;;;;;;5.16;74.14;94445.50;5093089;28;20107;-35
2022/10/07 02:31:51;;;;;;;0.85;0.85;;;;;;;5.14;74.35;94443.28;5083556;28;20020;-35
2022/10/07 02:34:18;;;;;;;0.28;0.28;;;;;;;5.08;74.07;94444.47;5095344;28;20027;-35
2022/10/07 02:36:49;;;;;;;1.10;1.10;;;;;;;5.08;74.00;94449.94;5113608;28;20035;-35
2022/10/07 02:39:14;;;;;;;9.52;4.45;;;;;;;5.22;72.95;94447.03;5113614;28;20076;-35
2022/10/07 02:41:52;;;;;;;5.38;3.58;;;;;;;5.27;73.02;94448.31;5113216;28;20028;-35
2022/10/07 02:44:46;;;;;;;3.67;1.27;;;;;;;5.21;73.56;94444.81;5113473;28;20031;-35
2022/10/07 02:47:16;;;;;;;1.90;1.20;;;;;;;5.15;73.49;94436.56;5022551;28;20056;-35
2022/10/07 02:49:44;;;;;;;0.90;0.90;;;;;;;5.01;73.97;94429.25;5095332;28;20059;-35
2022/10/07 02:52:14;;;;;;;1.05;1.05;;;;;;;5.03;73.57;94445.94;5094964;28;20027;-35
2022/10/07 02:54:44;;;;;;;0.70;0.70;;;;;;;4.90;73.85;94445.59;5113233;28;20023;-35
2022/10/07 02:57:12;;;;;;;0.70;0.70;;;;;;;4.91;73.96;94440.91;5095064;28;20080;-35
2022/10/07 02:59:38;;;;;;;2.78;2.60;;;;;;;4.95;73.82;94439.44;5095069;28;20027;-34
2022/10/07 03:02:08;;;;;;;5.88;5.35;;;;;;;4.85;74.27;94449.06;5077897;28;20407;-35
2022/10/07 03:04:33;;;;;;;3.03;2.83;;;;;;;4.82;75.09;94454.75;5094610;28;20060;-34
2022/10/07 03:07:00;;;;;;;1.52;1.42;;;;;;;4.72;75.57;94439.78;5112697;28;20180;-35
2022/10/07 03:09:25;;;;;;;1.63;0.77;;;;;;;4.84;75.58;94442.09;5079277;28;20062;-34
2022/10/07 03:11:51;;;;;;;1.27;1.27;;;;;;;4.86;75.42;94438.88;5074252;28;20111;-35
2022/10/07 03:14:17;;;;;;;1.25;1.17;;;;;;;4.85;76.29;94440.84;5092522;28;20492;-35
2022/10/07 03:16:43;;;;;;;0.75;0.73;;;;;;;4.80;76.40;94447.03;5092505;28;20028;-35
2022/10/07 03:19:09;;;;;;;1.40;1.13;;;;;;;4.75;75.78;94425.88;5092019;28;20210;-35
2022/10/07 03:21:35;;;;;;;1.48;1.48;;;;;;;4.95;75.93;94450.38;5092392;28;20043;-35
2022/10/07 03:24:03;;;;;;;0.75;0.75;;;;;;;5.01;75.42;94442.19;5092369;28;20024;-35
2022/10/07 03:26:30;;;;;;;0.90;0.90;;;;;;;4.89;75.50;94440.63;5091907;28;20100;-35
2022/10/07 03:28:57;;;;;;;0.40;0.40;;;;;;;4.84;76.08;94439.34;5101063;28;20542;-35
2022/10/07 03:31:22;;;;;;;0.40;0.40;;;;;;;4.84;75.68;94438.59;5107487;28;20027;-35
2022/10/07 03:33:48;;;;;;;0.30;0.30;;;;;;;5.00;76.59;94437.97;5092083;28;20457;-35
2022/10/07 03:36:13;;;;;;;0.20;0.20;;;;;;;5.05;78.32;94429.78;5092188;28;20691;-35
2022/10/07 03:38:38;;;;;;;0.82;0.82;;;;;;;5.03;79.67;94429.53;5091685;28;20047;-35
2022/10/07 03:41:05;;;;;;;0.63;0.63;;;;;;;5.09;81.82;94421.34;5091779;28;20023;-35
2022/10/07 03:43:31;;;;;;;0.30;0.30;;;;;;;5.16;82.60;94418.13;5091998;28;20024;-35
2022/10/07 03:45:57;;;;;;;1.35;1.30;;;;;;;5.00;79.34;94416.81;5091895;28;20435;-35
2022/10/07 03:48:23;;;;;;;2.58;1.00;;;;;;;5.13;78.30;94436.28;5091810;28;20036;-35
2022/10/07 03:50:49;;;;;;;8.43;2.38;;;;;;;5.15;77.66;94425.63;5091741;28;20123;-35
2022/10/07 03:53:15;;;;;;;1.15;1.15;;;;;;;5.24;78.53;94427.41;5091835;28;20031;-35
2022/10/07 03:55:40;;;;;;;0.30;0.30;;;;;;;5.34;80.25;94420.47;5091706;28;20488;-35
2022/10/07 03:58:06;;;;;;;0.60;0.60;;;;;;;5.21;78.32;94437.34;5091402;28;20466;-34
2022/10/07 04:00:31;;;;;;;2.45;1.77;;;;;;;5.08;77.28;94436.28;5091368;28;20043;-34
2022/10/07 04:02:57;;;;;;;2.70;1.70;;;;;;;5.25;76.96;94432.38;5091291;28;20030;-35
2022/10/07 04:05:22;;;;;;;0.75;0.75;;;;;;;5.22;76.85;94433.34;5091281;28;20039;-35
2022/10/07 04:07:49;;;;;;;2.13;2.03;;;;;;;5.14;77.25;94431.56;5090938;28;20051;-35
2022/10/07 04:10:16;;;;;;;0.50;0.50;;;;;;;5.10;77.02;94433.78;5091212;28;20028;-35
2022/10/07 04:12:43;;;;;;;3.53;2.05;;;;;;;5.18;76.66;94430.09;5091420;28;20110;-35
2022/10/07 04:15:12;;;;;;;0.82;0.82;;;;;;;5.13;76.54;94430.81;5090940;28;20526;-35
2022/10/07 04:17:38;;;;;;;2.05;1.85;;;;;;;5.19;76.24;94442.56;5090807;28;20019;-34
2022/10/07 04:20:04;;;;;;;0.70;0.70;;;;;;;5.25;75.40;94435.13;5091291;28;20024;-34
2022/10/07 04:22:30;;;;;;;1.20;1.15;;;;;;;5.38;75.91;94437.41;5091232;28;20028;-35
2022/10/07 04:27:41;;;;;;;0.95;0.95;;;;;;;5.18;77.33;94449.25;5090930;28;20511;-34
2022/10/07 04:30:07;;;;;;;1.77;1.67;;;;;;;5.26;77.00;94453.03;5073132;28;20640;-35
2022/10/07 04:32:33;;;;;;;0.38;0.38;;;;;;;5.22;79.97;94424.38;5105719;28;20054;-34
2022/10/07 04:35:00;;;;;;;0.32;0.32;;;;;;;5.12;80.23;94417.63;5111123;28;20576;-35
2022/10/07 04:37:26;;;;;;;0.57;0.57;;;;;;;5.29;79.14;94451.31;5111336;28;20023;-35
2022/10/07 04:39:52;;;;;;;0.50;0.50;;;;;;;5.38;79.03;94451.09;5110966;28;20031;-35
2022/10/07 04:45:01;;;;;;;1.25;1.15;;;;;;;5.51;79.71;94451.41;5111312;28;20042;-35
2022/10/07 04:47:27;;;;;;;0.35;0.35;;;;;;;5.55;81.24;94451.94;5092718;28;20571;-35
2022/10/07 04:49:53;;;;;;;0.20;0.20;;;;;;;5.45;81.56;94453.38;5111184;28;20501;-35
2022/10/07 04:52:19;;;;;;;1.30;1.30;;;;;;;5.38;80.33;94445.63;5111192;28;20050;-34
2022/10/07 04:54:45;;;;;;;1.88;1.77;;;;;;;5.51;80.02;94456.91;5111145;28;20474;-35
2022/10/07 04:57:12;;;;;;;2.13;2.00;;;;;;;5.63;79.84;94447.47;5111130;28;20028;-34
2022/10/07 04:59:38;;;;;;;0.60;0.60;;;;;;;5.68;79.92;94456.97;5110834;28;20093;-35
2022/10/07 05:02:03;;;;;;;2.28;2.08;;;;;;;5.60;80.38;94462.16;5110735;28;20028;-35
2022/10/07 05:04:29;;;;;;;0.60;0.60;;;;;;;5.56;80.35;94444.47;5110748;28;20108;-35
2022/10/07 05:06:54;;;;;;;1.70;1.40;;;;;;;5.67;80.36;94455.47;5110633;28;20043;-35
2022/10/07 05:09:20;;;;;;;0.82;0.82;;;;;;;5.75;80.28;94448.28;5095946;28;20023;-35
2022/10/07 05:11:47;;;;;;;0.40;0.40;;;;;;;5.73;82.28;94445.28;5090334;28;20119;-35
2022/10/07 05:14:12;;;;;;;0.50;0.50;;;;;;;5.69;82.67;94453.75;5090274;28;20511;-35
2022/10/07 05:16:38;;;;;;;0.30;0.30;;;;;;;5.81;83.25;94447.06;5090536;28;20020;-35
2022/10/07 05:19:04;;;;;;;0.47;0.47;;;;;;;5.94;83.70;94444.63;5090296;28;20032;-35
2022/10/07 05:21:29;;;;;;;0.20;0.20;;;;;;;6.09;84.68;94456.13;5090488;28;20407;-35
2022/10/07 05:23:55;;;;;;;0.30;0.30;;;;;;;6.24;84.67;94460.66;5090237;28;20517;-35
2022/10/07 05:26:20;;;;;;;0.22;0.22;;;;;;;6.35;84.26;94464.13;5089812;28;20031;-35
2022/10/07 05:28:48;;;;;;;1.55;0.95;;;;;;;6.43;84.54;94475.38;5099550;28;20015;-35
2022/10/07 05:31:14;;;;;;;0.30;0.30;;;;;;;6.52;84.27;94484.09;5111345;28;20103;-35
2022/10/07 05:33:39;;;;;;;2.20;2.10;;;;;;;6.57;83.05;94488.88;5094078;28;20111;-35
2022/10/07 05:36:07;;;;;;;4.50;3.00;;;;;;;6.70;81.89;94480.13;5094267;28;20031;-35
2022/10/07 05:38:32;;;;;;;1.75;1.67;;;;;;;6.84;81.47;94485.38;5094030;28;20035;-35
2022/10/07 05:41:02;;;;;;;3.85;2.70;;;;;;;6.97;81.58;94481.38;5094136;28;20028;-35
2022/10/07 05:43:29;;;;;;;0.38;0.38;;;;;;;7.06;81.73;94483.88;5094685;28;20575;-35
2022/10/07 05:46:19;;;;;;;1.45;1.35;;;;;;;7.18;82.26;94480.63;5094253;28;20086;-35
2022/10/07 05:48:50;;;;;;;3.28;3.15;;;;;;;7.26;83.37;94478.09;5093496;28;20040;-34
2022/10/07 05:51:16;;;;;;;1.17;1.00;;;;;;;7.47;83.76;94479.31;5093928;28;20102;-35
2022/10/07 05:53:41;;;;;;;0.40;0.40;;;;;;;7.70;84.23;94471.72;5093767;28;20106;-35
2022/10/07 05:56:11;;;;;;;0.30;0.30;;;;;;;8.02;81.82;94476.34;5094087;28;20030;-35
2022/10/07 05:58:37;;;;;;;0.95;0.95;;;;;;;8.43;80.68;94481.91;5076008;28;20027;-35
2022/10/07 06:01:05;;;;;;;1.48;0.88;;;;;;;8.98;78.14;94480.75;5093616;28;20024;-35
2022/10/07 06:03:32;;;;;;;0.50;0.50;;;;;;;9.58;75.87;94478.69;5075421;28;20411;-35
2022/10/07 06:05:59;;;;;;;0.40;0.40;;;;;;;10.24;72.42;94485.47;5093608;28;20043;-35
2022/10/07 06:08:25;;;;;;;0.28;0.28;;;;;;;10.96;69.91;94482.41;5093201;28;20101;-36
2022/10/07 06:13:35;;;;;;;0.63;0.63;;;;;;;12.63;62.58;94480.78;5093772;28;20041;-36
2022/10/07 06:16:05;;;;;;;0.30;0.30;;;;;;;13.26;60.26;94476.81;5093329;28;20020;-36
2022/10/07 06:18:31;;;;;;;0.20;0.20;;;;;;;13.84;57.03;94479.09;5093470;28;20023;-36
2022/10/07 06:20:58;;;;;;;0.50;0.50;;;;;;;14.36;55.99;94477.94;5093325;28;20028;-36
2022/10/07 06:23:25;;;;;;;0.40;0.40;;;;;;;14.91;54.50;94479.06;5093249;28;20499;-36
2022/10/07 06:26:00;;;;;;;1.65;1.55;;;;;;;15.44;52.42;94470.09;5093003;28;20024;-36
2022/10/07 06:28:31;;;;;;;1.50;1.40;;;;;;;15.72;50.36;94467.84;5098098;28;20015;-36
2022/10/07 06:30:56;;;;;;;0.25;0.25;;;;;;;16.32;52.20;94471.81;5112286;28;20020;-36
2022/10/07 06:33:22;;;;;;;0.20;0.20;;;;;;;16.74;50.31;94464.41;5093302;28;20039;-36
2022/10/07 06:35:47;;;;;;;0.40;0.40;;;;;;;17.04;46.96;94471.91;5093004;28;20409;-36
2022/10/07 06:38:13;;;;;;;1.85;0.55;;;;;;;16.89;46.33;94469.19;5093006;28;20024;-36
2022/10/07 06:40:38;;;;;;;0.20;0.20;;;;;;;16.88;46.55;94476.06;5092437;28;20129;-36
2022/10/07 06:43:04;;;;;;;0.28;0.28;;;;;;;17.00;46.89;94479.94;5093207;28;20028;-36
2022/10/07 06:45:31;;;;;;;0.50;0.50;;;;;;;16.68;46.48;94481.38;5092817;28;20499;-36
2022/10/07 06:47:56;;;;;;;0.47;0.47;;;;;;;16.91;46.55;94486.13;5092781;28;20016;-36
2022/10/07 06:50:22;;;;;;;0.32;0.32;;;;;;;16.82;46.93;94467.94;5092978;28;20032;-36
2022/10/07 06:52:48;;;;;;;0.30;0.30;;;;;;;16.89;46.95;94475.50;5093047;28;20024;-36
2022/10/07 06:55:13;;;;;;;0.17;0.17;;;;;;;16.81;47.02;94488.75;5092987;28;20044;-36
2022/10/07 06:57:40;;;;;;;0.52;0.52;;;;;;;17.12;45.20;94483.75;5092575;28;20552;-36
2022/10/07 07:00:06;;;;;;;1.20;1.20;;;;;;;17.08;45.68;94491.78;5092911;28;20027;-36
2022/10/07 07:02:32;;;;;;;0.15;0.15;;;;;;;17.37;45.00;94488.06;5092757;28;20081;-36
2022/10/07 07:04:57;;;;;;;0.20;0.20;;;;;;;17.42;45.84;94477.97;5092443;28;20583;-36
2022/10/07 07:07:23;;;;;;;0.30;0.30;;;;;;;17.56;44.94;94484.81;5092264;28;20044;-35
2022/10/07 07:09:51;;;;;;;0.20;0.20;;;;;;;17.83;44.67;94479.34;5092269;28;20126;-36
2022/10/07 07:12:17;;;;;;;0.20;0.20;;;;;;;18.19;43.70;94471.94;5092433;28;20024;-36
2022/10/07 07:14:43;;;;;;;0.30;0.30;;;;;;;18.38;43.53;94479.00;5092494;28;20102;-36
2022/10/07 07:17:10;;;;;;;0.40;0.40;;;;;;;18.60;42.09;94475.97;5092233;28;20511;-36
2022/10/07 07:19:35;;;;;;;2.13;0.55;;;;;;;18.80;41.60;94477.59;5092154;28;20024;-36
2022/10/07 07:22:01;;;;;;;0.10;0.10;;;;;;;18.96;42.60;94477.41;5092149;28;20111;-36
2022/10/07 07:24:27;;;;;;;0.38;0.38;;;;;;;19.36;41.74;94477.84;5092423;28;20038;-36
2022/10/07 07:26:52;;;;;;;0.63;0.63;;;;;;;19.49;39.62;94483.78;5091525;28;20036;-36
2022/10/07 07:29:17;;;;;;;0.20;0.20;;;;;;;19.47;40.25;94486.41;5092002;28;20073;-36
2022/10/07 07:31:43;;;;;;;0.28;0.28;;;;;;;19.78;39.76;94477.53;5099533;28;20015;-36
2022/10/07 07:34:11;;;;;;;0.65;0.65;;;;;;;20.16;37.90;94475.56;5112297;28;20024;-36
2022/10/07 07:36:40;;;;;;;0.73;0.73;;;;;;;20.22;38.07;94475.31;5112211;28;20028;-36
2022/10/07 07:39:08;;;;;;;0.80;0.80;;;;;;;20.14;38.02;94469.09;5112263;28;20027;-36
2022/10/07 07:41:37;;;;;;;1.20;0.95;;;;;;;20.30;36.97;94473.13;5112407;28;20050;-36
2022/10/07 07:44:03;;;;;;;;;;;;;;;19.78;38.42;94471.94;5112565;28;20035;-36
2022/10/07 07:46:35;;;;;;;0.60;0.35;;;;;;;19.90;38.69;94470.81;5111946;28;19907;-36
2022/10/07 07:49:00;;;;;;;0.10;0.10;;;;;;;19.87;40.32;94466.38;5112285;28;20416;-36
2022/10/07 07:51:26;;;;;;;0.20;0.20;;;;;;;20.46;38.40;94477.13;5111122;28;20030;-36
2022/10/07 07:54:14;;;;;;;0.32;0.32;;;;;;;20.96;33.81;94466.75;5112163;28;20027;-37
2022/10/07 07:56:40;;;;;;;0.38;0.38;;;;;;;21.35;34.76;94461.84;5093590;28;20050;-36
2022/10/07 07:59:06;;;;;;;0.40;0.40;;;;;;;21.49;33.48;94474.06;5112183;28;20551;-36
2022/10/07 08:01:34;;;;;;;1.20;1.17;;;;;;;21.92;33.31;94472.13;5091883;28;20401;-36
2022/10/07 08:04:00;;;;;;;0.20;0.20;;;;;;;22.25;31.99;94467.34;5091617;28;20443;-37
2022/10/07 08:06:26;;;;;;;3.00;0.32;;;;;;;22.48;31.66;94464.66;5091063;28;20488;-37
2022/10/07 08:08:55;;;;;;;0.35;0.35;;;;;;;22.54;33.44;94465.06;5091144;28;20060;-36
2022/10/07 08:11:21;;;;;;;0.25;0.25;;;;;;;22.40;33.12;94455.69;5091245;28;20527;-36
2022/10/07 08:13:46;;;;;;;0.90;0.73;;;;;;;22.43;31.96;94457.31;5091423;28;20032;-37
2022/10/07 08:16:18;;;;;;;0.55;0.55;;;;;;;22.35;30.85;94462.38;5091083;28;20024;-36
2022/10/07 08:18:46;;;;;;;0.82;0.32;;;;;;;22.60;32.86;94442.25;5091005;28;20020;-36
2022/10/07 08:21:12;;;;;;;0.60;0.60;;;;;;;22.96;30.99;94450.22;5091121;28;20048;-36
2022/10/07 08:23:38;;;;;;;0.30;0.30;;;;;;;22.71;31.08;94460.53;5091301;28;20047;-37
2022/10/07 08:26:05;;;;;;;0.10;0.10;;;;;;;22.58;32.33;94450.53;5090603;28;20031;-36
2022/10/07 08:28:31;;;;;;;0.10;0.10;;;;;;;22.58;31.82;94448.47;5096291;28;20046;-36
2022/10/07 08:31:10;;;;;;;0.50;0.50;;;;;;;22.72;30.48;94445.84;5110280;28;20108;-36
2022/10/07 08:33:38;;;;;;;0.10;0.10;;;;;;;22.60;30.93;94436.63;5090695;28;20027;-36
2022/10/07 08:36:05;;;;;;;0.50;0.50;;;;;;;22.55;31.76;94444.03;5091139;28;20030;-36
2022/10/07 08:38:35;;;;;;;0.10;0.10;;;;;;;22.71;32.83;94441.56;5091014;28;20019;-36
2022/10/07 08:41:41;;;;;;;0.15;0.15;;;;;;;22.87;31.14;94436.25;5090748;28;20118;-36
2022/10/07 08:44:12;;;;;;;0.00;0.00;;;;;;;23.01;30.19;94432.25;5053211;28;20024;-37
2022/10/07 08:46:44;;;;;;;0.17;0.17;;;;;;;22.71;32.64;94441.56;5090827;28;20051;-36
2022/10/07 08:49:14;;;;;;;0.45;0.45;;;;;;;22.87;31.91;94431.31;5072617;28;20487;-36
2022/10/07 08:51:53;;;;;;;0.20;0.20;;;;;;;22.93;31.40;94428.16;5090518;28;20035;-36
2022/10/07 08:54:25;;;;;;;0.30;0.30;;;;;;;22.76;30.40;94428.47;5072924;28;20500;-36
2022/10/07 08:56:50;;;;;;;0.40;0.40;;;;;;;23.08;30.60;94422.09;5090349;28;20024;-37
2022/10/07 08:59:30;;;;;;;0.52;0.52;;;;;;;22.89;31.47;94425.81;5090784;28;20111;-36
2022/10/07 09:02:14;;;;;;;0.13;0.13;;;;;;;22.88;30.95;94413.09;5072256;28;20024;-36
2022/10/07 09:04:51;;;;;;;0.47;0.47;;;;;;;22.86;30.12;94412.22;5090418;28;20028;-36
2022/10/07 09:07:39;;;;;;;0.80;0.43;;;;;;;22.29;30.02;94402.91;5090343;28;20044;-36
2022/10/07 09:10:07;;;;;;;0.52;0.52;;;;;;;22.21;32.17;94419.25;5070304;28;20056;-36
2022/10/07 09:13:20;;;;;;;0.57;0.57;;;;;;;22.28;32.21;94418.31;5070513;28;20136;-36
2022/10/07 09:16:08;;;;;;;0.20;0.20;;;;;;;22.48;32.00;94410.47;5064521;28;20047;-36
2022/10/07 09:18:38;;;;;;;1.13;0.98;;;;;;;22.56;30.48;94408.19;5070372;28;20048;-36
2022/10/07 09:21:08;;;;;;;0.13;0.13;;;;;;;22.41;29.53;94378.38;5052590;28;20090;-36
2022/10/07 09:23:35;;;;;;;0.10;0.10;;;;;;;22.19;30.49;94393.06;5052211;28;20024;-36
2022/10/07 09:26:01;;;;;;;0.85;0.52;;;;;;;22.08;30.96;94393.72;5072324;28;20032;-36
2022/10/07 09:28:29;;;;;;;0.20;0.20;;;;;;;22.18;31.75;94391.59;5072501;28;20423;-36
2022/10/07 09:30:57;;;;;;;0.30;0.30;;;;;;;21.97;31.33;94394.41;5073281;28;20063;-36
2022/10/07 09:33:23;;;;;;;0.13;0.13;;;;;;;21.97;32.55;94388.78;5110360;28;20035;-36
2022/10/07 09:36:06;;;;;;;0.17;0.17;;;;;;;22.59;34.25;94387.28;5092658;28;20030;-36
2022/10/07 09:38:35;;;;;;;0.10;0.10;;;;;;;22.78;31.46;94392.75;5110695;28;20028;-36
2022/10/07 09:41:24;;;;;;;0.17;0.17;;;;;;;22.47;31.60;94380.84;5110707;28;20031;-37
2022/10/07 09:44:00;;;;;;;0.10;0.10;;;;;;;22.73;33.00;94376.94;5110394;28;20027;-36
2022/10/07 09:46:41;;;;;;;0.10;0.10;;;;;;;23.23;32.96;94371.66;5110584;28;20042;-36
2022/10/07 09:49:28;;;;;;;0.13;0.13;;;;;;;23.38;30.10;94366.91;5110392;28;20526;-37
2022/10/07 09:52:22;;;;;;;0.30;0.30;;;;;;;23.41;30.04;94371.31;5108828;28;20042;-36
2022/10/07 09:54:50;;;;;;;0.10;0.10;;;;;;;23.69;30.07;94367.41;5080129;28;20572;-36
2022/10/07 09:57:24;;;;;;;0.17;0.17;;;;;;;24.37;27.52;94367.88;5090245;28;20020;-37
2022/10/07 09:59:50;;;;;;;0.15;0.15;;;;;;;24.59;29.81;94369.16;5089906;28;20047;-36
2022/10/07 10:02:21;;;;;;;0.63;0.63;;;;;;;25.19;28.73;94361.25;5089815;28;20023;-36
2022/10/07 10:04:53;;;;;;;0.28;0.28;;;;;;;25.72;26.24;94355.59;5071881;28;20032;-36
2022/10/07 10:07:30;;;;;;;0.10;0.10;;;;;;;26.22;26.65;94349.72;5089524;28;20048;-37
2022/10/07 10:10:03;;;;;;;0.17;0.17;;;;;;;26.32;25.13;94353.03;5072038;28;20028;-36
2022/10/07 10:12:32;;;;;;;1.27;1.15;;;;;;;26.40;27.15;94338.56;5090083;28;20101;-36
2022/10/07 10:14:58;;;;;;;0.10;0.10;;;;;;;26.98;26.46;94339.28;5091613;28;20023;-37
2022/10/07 10:17:29;;;;;;;0.10;0.10;;;;;;;27.08;24.93;94338.31;5093429;28;20038;-37
2022/10/07 10:19:55;;;;;;;0.77;0.35;;;;;;;27.17;24.49;94345.81;5093325;28;20035;-36
2022/10/07 10:22:39;;;;;;;0.08;0.08;;;;;;;27.48;24.49;94340.19;5075472;28;20035;-37
2022/10/07 10:28:03;;;;;;;0.10;0.10;;;;;;;26.59;25.53;94323.91;5078047;28;20062;-36
2022/10/07 10:30:29;;;;;;;0.40;0.37;;;;;;;26.46;25.49;94333.94;5055550;28;20534;-36
2022/10/07 10:33:13;;;;;;;0.10;0.10;;;;;;;25.62;25.27;94330.31;5108425;28;20019;-36
2022/10/07 10:36:01;;;;;;;0.38;0.38;;;;;;;25.11;28.15;94323.34;5113498;28;20023;-37
2022/10/07 10:38:32;;;;;;;0.10;0.10;;;;;;;25.49;28.21;94317.66;5095571;28;20504;-36
2022/10/07 10:40:57;;;;;;;1.27;1.05;;;;;;;26.08;26.66;94321.41;5113447;28;20088;-37
2022/10/07 10:43:49;;;;;;;0.20;0.20;;;;;;;26.40;25.76;94318.75;5113583;28;20023;-36
2022/10/07 10:46:40;;;;;;;0.10;0.10;;;;;;;26.14;25.10;94309.69;5095188;28;20031;-36
2022/10/07 10:49:37;;;;;;;0.10;0.10;;;;;;;24.98;28.58;94309.91;5103470;28;20028;-36
2022/10/07 10:52:13;;;;;;;0.35;0.35;;;;;;;24.88;28.61;94307.28;5093069;28;20032;-36
2022/10/07 10:55:00;;;;;;;0.10;0.10;;;;;;;24.50;28.56;94305.13;5092685;28;20060;-37
2022/10/07 10:57:44;;;;;;;0.47;0.40;;;;;;;24.07;29.75;94299.91;5075192;28;20036;-36
2022/10/07 11:00:13;;;;;;;0.10;0.10;;;;;;;24.18;29.41;94300.47;5092647;28;20027;-36
2022/10/07 11:02:51;;;;;;;0.10;0.10;;;;;;;24.20;30.09;94297.75;5092800;28;20048;-35
2022/10/07 11:05:34;;;;;;;0.65;0.65;;;;;;;23.76;30.38;94302.28;5074950;28;20047;-36
2022/10/07 11:08:09;;;;;;;0.55;0.55;;;;;;;23.65;30.17;94291.03;5092247;28;20044;-36
2022/10/07 11:10:45;;;;;;;0.68;0.68;;;;;;;23.55;30.04;94291.16;5092377;28;20055;-37
2022/10/07 11:13:21;;;;;;;0.13;0.13;;;;;;;23.51;30.87;94296.56;5092326;28;20028;-36
2022/10/07 11:15:53;;;;;;;0.38;0.38;;;;;;;23.38;30.59;94293.63;5092599;28;20020;-35
2022/10/07 11:18:35;;;;;;;11.98;0.82;;;;;;;23.61;30.75;94285.88;5074700;28;20446;-36
2022/10/07 11:21:03;;;;;;;0.85;0.65;;;;;;;23.99;30.17;94282.50;5092210;28;20052;-36
2022/10/07 11:23:51;;;;;;;0.30;0.30;;;;;;;24.42;29.64;94280.00;5092202;28;20567;-36
2022/10/07 11:26:19;;;;;;;0.25;0.25;;;;;;;24.22;29.72;94281.69;5091798;28;20020;-36
2022/10/07 11:28:45;;;;;;;0.15;0.15;;;;;;;24.05;29.72;94282.88;5091878;28;20567;-36
2022/10/07 11:31:19;;;;;;;0.40;0.40;;;;;;;24.26;29.64;94278.34;5077337;28;20043;-37
2022/10/07 11:33:53;;;;;;;0.20;0.20;;;;;;;23.74;30.74;94282.41;5094447;28;20027;-36
2022/10/07 11:36:25;;;;;;;0.20;0.20;;;;;;;23.85;32.26;94280.91;5112389;28;20022;-36
2022/10/07 11:38:51;;;;;;;1.73;0.98;;;;;;;23.83;30.58;94277.97;5093980;28;20019;-36
2022/10/07 11:41:58;;;;;;;1.63;1.23;;;;;;;23.95;30.28;94278.69;5112285;28;20028;-36
2022/10/07 11:44:36;;;;;;;0.95;0.75;;;;;;;23.86;30.40;94274.69;5110387;28;20024;-36
2022/10/07 11:47:05;;;;;;;0.30;0.30;;;;;;;23.52;31.26;94257.84;5073630;28;20024;-36
2022/10/07 11:49:35;;;;;;;1.30;0.90;;;;;;;23.48;31.89;94275.22;5073609;28;20024;-36
2022/10/07 11:52:06;;;;;;;0.82;0.82;;;;;;;23.46;33.28;94257.47;5073555;28;20077;-36
2022/10/07 11:54:41;;;;;;;0.38;0.38;;;;;;;23.34;33.01;94274.41;5091522;28;20030;-36
2022/10/07 11:57:25;;;;;;;0.30;0.30;;;;;;;23.38;32.77;94268.25;5091478;28;20063;-36
2022/10/07 12:00:16;;;;;;;1.08;0.52;;;;;;;23.11;32.09;94277.19;5091815;28;20031;-36
2022/10/07 12:02:45;;;;;;;0.43;0.43;;;;;;;22.66;33.17;94273.72;5091374;28;20517;-36
2022/10/07 12:05:33;;;;;;;0.30;0.30;;;;;;;22.15;34.21;94275.41;5091659;28;20131;-36
2022/10/07 12:08:23;;;;;;;1.08;1.08;;;;;;;21.86;34.53;94272.84;5091050;28;20066;-35